Terminal Aerodrome Forecast
Issued by NWS Memphis, TN

Home | Current Version | Previous Version | Text Only | Print | Product List | Glossary On
Versions: 1 2 3 4 5 6 7 8 9 10 11 12 13 14 15
000
FTUS44 KMEG 171100
TAFJBR
TAF
KJBR 171120Z 1712/1812 VRB03KT P6SM SKC
     FM171500 17007KT P6SM SCT250
     FM171900 17010KT P6SM SCT040 SCT250
     FM180000 VRB03KT P6SM BKN040
     FM180500 VRB03KT P6SM VCSH BKN035=

USA.gov is the U.S. government's official web portal to all federal, state and local government web resources and services.